sensor_id;sensor_type;location;lat;lon;timestamp;pressure;altitude;pressure_sealevel;temperature;humidity
19783;BME280;10051;40.294;-3.754;2023-02-13T00:00:15;95566.59;;;6.55;70.07
19783;BME280;10051;40.294;-3.754;2023-02-13T00:02:40;95506.09;;;6.14;70.36
19783;BME280;10051;40.294;-3.754;2023-02-13T00:05:06;95555.53;;;6.53;69.78
19783;BME280;10051;40.294;-3.754;2023-02-13T00:07:32;95508.28;;;6.36;68.98
19783;BME280;10051;40.294;-3.754;2023-02-13T00:09:58;95551.75;;;6.67;69.11
19783;BME280;10051;40.294;-3.754;2023-02-13T00:12:23;95438.63;;;6.11;68.59
19783;BME280;10051;40.294;-3.754;2023-02-13T00:14:49;95537.00;;;6.73;68.13
19783;BME280;10051;40.294;-3.754;2023-02-13T00:17:15;95541.63;;;6.90;67.54
19783;BME280;10051;40.294;-3.754;2023-02-13T00:19:40;95557.69;;;6.93;67.53
19783;BME280;10051;40.294;-3.754;2023-02-13T00:22:06;95422.28;;;5.97;67.60
19783;BME280;10051;40.294;-3.754;2023-02-13T00:24:32;95570.06;;;7.17;67.03
19783;BME280;10051;40.294;-3.754;2023-02-13T00:26:57;95476.13;;;6.54;66.42
19783;BME280;10051;40.294;-3.754;2023-02-13T00:29:22;95536.47;;;6.83;66.92
19783;BME280;10051;40.294;-3.754;2023-02-13T00:31:48;95483.28;;;6.59;66.63
19783;BME280;10051;40.294;-3.754;2023-02-13T00:34:14;95579.94;;;7.14;67.14
19783;BME280;10051;40.294;-3.754;2023-02-13T00:36:39;95498.72;;;6.79;66.59
19783;BME280;10051;40.294;-3.754;2023-02-13T00:39:05;95569.81;;;7.18;66.44
19783;BME280;10051;40.294;-3.754;2023-02-13T00:41:30;95544.66;;;7.05;66.90
19783;BME280;10051;40.294;-3.754;2023-02-13T00:43:56;95570.72;;;7.12;66.93
19783;BME280;10051;40.294;-3.754;2023-02-13T00:46:22;95458.78;;;6.41;67.15
19783;BME280;10051;40.294;-3.754;2023-02-13T00:48:47;95423.81;;;6.23;66.67
19783;BME280;10051;40.294;-3.754;2023-02-13T00:51:13;95440.66;;;6.28;66.73
19783;BME280;10051;40.294;-3.754;2023-02-13T00:53:39;95569.16;;;6.92;67.38
19783;BME280;10051;40.294;-3.754;2023-02-13T00:56:05;95556.72;;;6.88;67.73
19783;BME280;10051;40.294;-3.754;2023-02-13T00:58:31;95557.09;;;6.91;67.95
19783;BME280;10051;40.294;-3.754;2023-02-13T01:00:57;95500.38;;;6.61;67.77
19783;BME280;10051;40.294;-3.754;2023-02-13T01:03:23;95552.81;;;6.97;67.58
19783;BME280;10051;40.294;-3.754;2023-02-13T01:05:50;95535.22;;;6.85;67.46
19783;BME280;10051;40.294;-3.754;2023-02-13T01:08:17;95534.78;;;6.89;67.29
19783;BME280;10051;40.294;-3.754;2023-02-13T01:10:45;95515.38;;;6.66;68.03
19783;BME280;10051;40.294;-3.754;2023-02-13T01:13:13;95524.53;;;6.75;67.66
19783;BME280;10051;40.294;-3.754;2023-02-13T01:15:39;95530.03;;;6.67;67.67
19783;BME280;10051;40.294;-3.754;2023-02-13T01:18:05;95555.38;;;6.85;67.81
19783;BME280;10051;40.294;-3.754;2023-02-13T01:20:30;95450.25;;;6.34;67.13
19783;BME280;10051;40.294;-3.754;2023-02-13T01:22:56;95394.31;;;6.04;67.16
19783;BME280;10051;40.294;-3.754;2023-02-13T01:25:23;95508.59;;;6.77;66.66
19783;BME280;10051;40.294;-3.754;2023-02-13T01:27:49;95546.91;;;7.02;67.06
19783;BME280;10051;40.294;-3.754;2023-02-13T01:30:16;95552.50;;;7.05;66.61
19783;BME280;10051;40.294;-3.754;2023-02-13T01:32:43;95547.50;;;7.04;67.19
19783;BME280;10051;40.294;-3.754;2023-02-13T01:35:10;95547.84;;;7.07;66.64
19783;BME280;10051;40.294;-3.754;2023-02-13T01:37:36;95447.81;;;6.32;66.97
19783;BME280;10051;40.294;-3.754;2023-02-13T01:40:04;95516.09;;;6.73;67.25
19783;BME280;10051;40.294;-3.754;2023-02-13T01:42:32;95493.16;;;6.57;67.65
19783;BME280;10051;40.294;-3.754;2023-02-13T01:45:00;95492.59;;;6.54;67.50
19783;BME280;10051;40.294;-3.754;2023-02-13T01:50:06;95472.66;;;6.23;67.49
19783;BME280;10051;40.294;-3.754;2023-02-13T01:52:34;95459.59;;;6.23;67.85
19783;BME280;10051;40.294;-3.754;2023-02-13T01:55:00;95514.38;;;6.48;67.62
19783;BME280;10051;40.294;-3.754;2023-02-13T01:57:27;95560.25;;;6.81;67.81
19783;BME280;10051;40.294;-3.754;2023-02-13T02:00:02;95549.50;;;6.71;68.19
19783;BME280;10051;40.294;-3.754;2023-02-13T02:02:30;95553.91;;;6.70;68.04
19783;BME280;10051;40.294;-3.754;2023-02-13T02:05:00;95476.06;;;6.23;68.56
19783;BME280;10051;40.294;-3.754;2023-02-13T02:07:28;95548.97;;;6.81;67.40
19783;BME280;10051;40.294;-3.754;2023-02-13T02:09:59;95495.38;;;6.22;68.59
19783;BME280;10051;40.294;-3.754;2023-02-13T02:12:33;95552.25;;;6.58;68.24
19783;BME280;10051;40.294;-3.754;2023-02-13T02:15:00;95439.91;;;5.83;68.71
19783;BME280;10051;40.294;-3.754;2023-02-13T02:17:27;95426.00;;;5.45;69.11
19783;BME280;10051;40.294;-3.754;2023-02-13T02:34:01;95556.13;;;5.92;70.87
19783;BME280;10051;40.294;-3.754;2023-02-13T02:39:42;95545.66;;;5.92;71.25
19783;BME280;10051;40.294;-3.754;2023-02-13T02:42:24;95509.44;;;5.52;71.99
19783;BME280;10051;40.294;-3.754;2023-02-13T02:47:32;95558.91;;;5.65;72.90
19783;BME280;10051;40.294;-3.754;2023-02-13T02:50:33;95533.38;;;5.49;73.22
19783;BME280;10051;40.294;-3.754;2023-02-13T02:53:28;95549.91;;;5.61;73.06
19783;BME280;10051;40.294;-3.754;2023-02-13T02:56:25;95550.72;;;5.87;72.48
19783;BME280;10051;40.294;-3.754;2023-02-13T02:59:03;95504.94;;;5.41;72.17
19783;BME280;10051;40.294;-3.754;2023-02-13T03:01:54;95540.88;;;5.39;73.17
19783;BME280;10051;40.294;-3.754;2023-02-13T03:04:42;95531.50;;;5.24;73.86
19783;BME280;10051;40.294;-3.754;2023-02-13T03:07:29;95542.72;;;5.31;74.36
19783;BME280;10051;40.294;-3.754;2023-02-13T03:10:09;95560.53;;;5.34;74.41
19783;BME280;10051;40.294;-3.754;2023-02-13T03:13:14;95551.00;;;5.21;75.69
19783;BME280;10051;40.294;-3.754;2023-02-13T03:15:50;95539.16;;;5.26;75.37
19783;BME280;10051;40.294;-3.754;2023-02-13T03:18:42;95538.31;;;5.25;74.62
19783;BME280;10051;40.294;-3.754;2023-02-13T03:24:29;95546.72;;;5.59;72.83
19783;BME280;10051;40.294;-3.754;2023-02-13T03:27:15;95553.38;;;5.55;73.25
19783;BME280;10051;40.294;-3.754;2023-02-13T03:30:18;95502.41;;;4.95;73.97
19783;BME280;10051;40.294;-3.754;2023-02-13T03:33:11;95547.09;;;5.31;73.85
19783;BME280;10051;40.294;-3.754;2023-02-13T03:35:48;95550.78;;;5.23;73.99
19783;BME280;10051;40.294;-3.754;2023-02-13T03:38:49;95554.88;;;5.12;74.78
19783;BME280;10051;40.294;-3.754;2023-02-13T03:41:35;95558.59;;;5.23;74.06
19783;BME280;10051;40.294;-3.754;2023-02-13T03:46:47;95563.16;;;5.34;73.38
19783;BME280;10051;40.294;-3.754;2023-02-13T03:49:25;95520.25;;;5.30;71.98
19783;BME280;10051;40.294;-3.754;2023-02-13T03:54:44;95574.38;;;5.35;73.07
19783;BME280;10051;40.294;-3.754;2023-02-13T03:57:32;95530.69;;;4.98;73.62
19783;BME280;10051;40.294;-3.754;2023-02-13T04:00:18;95575.13;;;5.42;72.63
19783;BME280;10051;40.294;-3.754;2023-02-13T04:02:57;95577.50;;;5.50;72.60
19783;BME280;10051;40.294;-3.754;2023-02-13T04:05:27;95562.81;;;5.24;72.42
19783;BME280;10051;40.294;-3.754;2023-02-13T04:07:55;95533.09;;;4.93;73.28
19783;BME280;10051;40.294;-3.754;2023-02-13T04:10:22;95515.16;;;4.71;73.69
19783;BME280;10051;40.294;-3.754;2023-02-13T04:13:06;95582.84;;;5.30;73.05
19783;BME280;10051;40.294;-3.754;2023-02-13T04:15:49;95589.25;;;5.34;72.60
19783;BME280;10051;40.294;-3.754;2023-02-13T04:18:23;95569.97;;;5.35;72.00
19783;BME280;10051;40.294;-3.754;2023-02-13T04:20:50;95540.34;;;5.23;72.01
19783;BME280;10051;40.294;-3.754;2023-02-13T04:23:16;95478.13;;;4.63;72.24
19783;BME280;10051;40.294;-3.754;2023-02-13T04:25:44;95535.66;;;5.00;72.45
19783;BME280;10051;40.294;-3.754;2023-02-13T04:28:11;95521.00;;;4.67;73.14
19783;BME280;10051;40.294;-3.754;2023-02-13T04:30:37;95575.41;;;4.95;74.10
19783;BME280;10051;40.294;-3.754;2023-02-13T04:33:03;95412.13;;;3.91;74.11
19783;BME280;10051;40.294;-3.754;2023-02-13T04:35:29;95531.38;;;4.80;73.44
19783;BME280;10051;40.294;-3.754;2023-02-13T04:37:54;95558.53;;;4.98;73.83
19783;BME280;10051;40.294;-3.754;2023-02-13T04:40:20;95595.03;;;4.98;74.62
19783;BME280;10051;40.294;-3.754;2023-02-13T04:42:47;95436.94;;;3.87;75.23
19783;BME280;10051;40.294;-3.754;2023-02-13T04:45:13;95553.34;;;4.45;75.81
19783;BME280;10051;40.294;-3.754;2023-02-13T04:47:39;95590.22;;;5.01;75.08
19783;BME280;10051;40.294;-3.754;2023-02-13T04:50:05;95535.66;;;4.54;75.26
19783;BME280;10051;40.294;-3.754;2023-02-13T04:52:31;95564.38;;;4.47;75.93
19783;BME280;10051;40.294;-3.754;2023-02-13T04:54:57;95595.56;;;4.68;76.31
19783;BME280;10051;40.294;-3.754;2023-02-13T04:57:22;95514.97;;;4.14;76.42
19783;BME280;10051;40.294;-3.754;2023-02-13T04:59:48;95529.34;;;4.37;76.17
19783;BME280;10051;40.294;-3.754;2023-02-13T05:02:13;95556.69;;;4.59;75.40
19783;BME280;10051;40.294;-3.754;2023-02-13T05:04:39;95559.91;;;4.61;75.35
19783;BME280;10051;40.294;-3.754;2023-02-13T05:07:04;95523.28;;;4.50;74.73
19783;BME280;10051;40.294;-3.754;2023-02-13T05:09:30;95603.13;;;4.83;75.40
19783;BME280;10051;40.294;-3.754;2023-02-13T05:11:56;95565.66;;;4.70;74.86
19783;BME280;10051;40.294;-3.754;2023-02-13T05:14:21;95533.03;;;4.68;74.42
19783;BME280;10051;40.294;-3.754;2023-02-13T05:16:47;95563.03;;;4.84;74.28
19783;BME280;10051;40.294;-3.754;2023-02-13T05:19:14;95537.00;;;4.70;74.26
19783;BME280;10051;40.294;-3.754;2023-02-13T05:21:40;95460.31;;;4.00;74.50
19783;BME280;10051;40.294;-3.754;2023-02-13T05:24:27;95545.41;;;4.79;74.13
19783;BME280;10051;40.294;-3.754;2023-02-13T05:26:53;95487.22;;;4.46;73.19
19783;BME280;10051;40.294;-3.754;2023-02-13T05:29:18;95554.25;;;4.71;73.86
19783;BME280;10051;40.294;-3.754;2023-02-13T05:31:49;95560.13;;;4.60;74.91
19783;BME280;10051;40.294;-3.754;2023-02-13T05:34:15;95587.50;;;4.83;75.14
19783;BME280;10051;40.294;-3.754;2023-02-13T05:36:41;95573.94;;;4.60;75.06
19783;BME280;10051;40.294;-3.754;2023-02-13T05:39:06;95557.16;;;4.36;75.89
19783;BME280;10051;40.294;-3.754;2023-02-13T05:41:32;95577.34;;;4.61;75.42
19783;BME280;10051;40.294;-3.754;2023-02-13T05:43:58;95606.31;;;4.85;75.60
19783;BME280;10051;40.294;-3.754;2023-02-13T05:46:24;95552.72;;;4.57;74.93
19783;BME280;10051;40.294;-3.754;2023-02-13T05:48:50;95485.09;;;4.23;73.99
19783;BME280;10051;40.294;-3.754;2023-02-13T05:51:17;95608.50;;;4.95;74.30
19783;BME280;10051;40.294;-3.754;2023-02-13T05:53:43;95530.53;;;4.34;75.07
19783;BME280;10051;40.294;-3.754;2023-02-13T05:56:09;95479.56;;;3.93;74.68
19783;BME280;10051;40.294;-3.754;2023-02-13T05:58:35;95623.94;;;4.89;75.06
19783;BME280;10051;40.294;-3.754;2023-02-13T06:01:01;95619.94;;;4.87;74.98
19783;BME280;10051;40.294;-3.754;2023-02-13T06:03:29;95621.53;;;4.95;74.76
19783;BME280;10051;40.294;-3.754;2023-02-13T06:05:55;95607.50;;;4.89;74.69
19783;BME280;10051;40.294;-3.754;2023-02-13T06:08:21;95592.06;;;4.94;73.96
19783;BME280;10051;40.294;-3.754;2023-02-13T06:10:48;95632.53;;;5.03;74.05
19783;BME280;10051;40.294;-3.754;2023-02-13T06:13:15;95628.34;;;5.02;74.36
19783;BME280;10051;40.294;-3.754;2023-02-13T06:15:41;95623.94;;;4.89;75.15
19783;BME280;10051;40.294;-3.754;2023-02-13T06:18:07;95632.78;;;4.88;75.44
19783;BME280;10051;40.294;-3.754;2023-02-13T06:20:34;95636.38;;;4.94;74.48
19783;BME280;10051;40.294;-3.754;2023-02-13T06:23:00;95633.91;;;5.06;74.47
19783;BME280;10051;40.294;-3.754;2023-02-13T06:25:25;95643.97;;;5.02;74.59
19783;BME280;10051;40.294;-3.754;2023-02-13T06:27:51;95510.31;;;4.29;74.50
19783;BME280;10051;40.294;-3.754;2023-02-13T06:30:17;95530.53;;;4.34;74.57
19783;BME280;10051;40.294;-3.754;2023-02-13T06:32:45;95646.41;;;4.97;74.91
19783;BME280;10051;40.294;-3.754;2023-02-13T06:35:11;95638.63;;;4.84;75.45
19783;BME280;10051;40.294;-3.754;2023-02-13T06:37:37;95534.63;;;3.90;76.53
19783;BME280;10051;40.294;-3.754;2023-02-13T06:40:08;95547.25;;;3.79;76.99
19783;BME280;10051;40.294;-3.754;2023-02-13T06:42:34;95620.72;;;4.08;78.32
19783;BME280;10051;40.294;-3.754;2023-02-13T06:44:59;95552.88;;;3.63;78.66
19783;BME280;10051;40.294;-3.754;2023-02-13T06:47:25;95520.84;;;3.35;78.80
19783;BME280;10051;40.294;-3.754;2023-02-13T06:49:51;95598.69;;;3.64;79.99
19783;BME280;10051;40.294;-3.754;2023-02-13T06:52:16;95647.56;;;3.95;80.54
19783;BME280;10051;40.294;-3.754;2023-02-13T06:54:42;95661.97;;;4.05;80.14
19783;BME280;10051;40.294;-3.754;2023-02-13T06:57:07;95599.66;;;3.49;80.49
19783;BME280;10051;40.294;-3.754;2023-02-13T06:59:33;95628.72;;;3.73;80.45
19783;BME280;10051;40.294;-3.754;2023-02-13T07:01:59;95630.13;;;3.69;80.90
19783;BME280;10051;40.294;-3.754;2023-02-13T07:04:24;95554.66;;;3.29;80.17
19783;BME280;10051;40.294;-3.754;2023-02-13T07:06:53;95559.06;;;3.62;79.16
19783;BME280;10051;40.294;-3.754;2023-02-13T07:09:19;95617.50;;;3.93;79.45
19783;BME280;10051;40.294;-3.754;2023-02-13T07:11:45;95683.19;;;4.22;79.69
19783;BME280;10051;40.294;-3.754;2023-02-13T07:14:11;95531.00;;;3.17;79.94
19783;BME280;10051;40.294;-3.754;2023-02-13T07:16:36;95597.28;;;3.48;80.62
19783;BME280;10051;40.294;-3.754;2023-02-13T07:19:02;95536.81;;;3.12;80.53
19783;BME280;10051;40.294;-3.754;2023-02-13T07:21:27;95582.28;;;3.50;80.46
19783;BME280;10051;40.294;-3.754;2023-02-13T07:23:53;95623.31;;;3.95;79.70
19783;BME280;10051;40.294;-3.754;2023-02-13T07:26:19;95648.53;;;3.87;80.21
19783;BME280;10051;40.294;-3.754;2023-02-13T07:28:44;95585.84;;;3.29;80.91
19783;BME280;10051;40.294;-3.754;2023-02-13T07:31:10;95627.31;;;3.64;80.87
19783;BME280;10051;40.294;-3.754;2023-02-13T07:33:36;95692.41;;;3.97;80.48
19783;BME280;10051;40.294;-3.754;2023-02-13T07:36:03;95579.56;;;3.03;81.18
19783;BME280;10051;40.294;-3.754;2023-02-13T07:38:29;95564.31;;;2.79;81.91
19783;BME280;10051;40.294;-3.754;2023-02-13T07:40:59;95693.31;;;3.49;83.09
19783;BME280;10051;40.294;-3.754;2023-02-13T07:43:25;95674.03;;;3.30;82.89
19783;BME280;10051;40.294;-3.754;2023-02-13T07:45:51;95668.06;;;3.30;82.97
19783;BME280;10051;40.294;-3.754;2023-02-13T07:48:23;95696.91;;;3.48;82.70
19783;BME280;10051;40.294;-3.754;2023-02-13T07:50:51;95561.69;;;2.73;81.99
19783;BME280;10051;40.294;-3.754;2023-02-13T07:53:17;95706.59;;;3.81;81.54
19783;BME280;10051;40.294;-3.754;2023-02-13T07:55:43;95623.25;;;3.27;81.35
19783;BME280;10051;40.294;-3.754;2023-02-13T07:58:08;95664.94;;;3.75;80.32
19783;BME280;10051;40.294;-3.754;2023-02-13T08:00:34;95659.31;;;3.57;80.38
19783;BME280;10051;40.294;-3.754;2023-02-13T08:03:00;95727.66;;;4.07;79.90
19783;BME280;10051;40.294;-3.754;2023-02-13T08:05:27;95689.38;;;3.80;79.64
19783;BME280;10051;40.294;-3.754;2023-02-13T08:07:53;95674.53;;;3.67;78.30
19783;BME280;10051;40.294;-3.754;2023-02-13T08:10:19;95732.25;;;4.05;78.25
19783;BME280;10051;40.294;-3.754;2023-02-13T08:13:04;95715.38;;;3.80;78.03
19783;BME280;10051;40.294;-3.754;2023-02-13T08:15:30;95672.06;;;3.39;78.06
19783;BME280;10051;40.294;-3.754;2023-02-13T08:17:58;95680.25;;;3.29;79.48
19783;BME280;10051;40.294;-3.754;2023-02-13T08:20:24;95681.63;;;3.32;80.53
19783;BME280;10051;40.294;-3.754;2023-02-13T08:22:49;95701.72;;;3.51;80.48
19783;BME280;10051;40.294;-3.754;2023-02-13T08:25:17;95718.97;;;3.72;80.08
19783;BME280;10051;40.294;-3.754;2023-02-13T08:27:44;95742.66;;;3.91;80.15
19783;BME280;10051;40.294;-3.754;2023-02-13T08:30:11;95702.19;;;3.75;80.30
19783;BME280;10051;40.294;-3.754;2023-02-13T08:32:37;95736.06;;;4.02;79.86
19783;BME280;10051;40.294;-3.754;2023-02-13T08:35:03;95742.09;;;4.16;79.89
19783;BME280;10051;40.294;-3.754;2023-02-13T08:37:29;95739.47;;;4.43;78.85
19783;BME280;10051;40.294;-3.754;2023-02-13T08:39:54;95674.00;;;4.12;78.29
19783;BME280;10051;40.294;-3.754;2023-02-13T08:42:20;95639.34;;;4.19;77.63
19783;BME280;10051;40.294;-3.754;2023-02-13T08:44:45;95677.78;;;4.57;76.94
19783;BME280;10051;40.294;-3.754;2023-02-13T08:47:11;95711.00;;;4.68;76.91
19783;BME280;10051;40.294;-3.754;2023-02-13T08:49:37;95747.88;;;4.92;77.22
19783;BME280;10051;40.294;-3.754;2023-02-13T08:52:03;95624.88;;;4.36;75.81
19783;BME280;10051;40.294;-3.754;2023-02-13T08:54:29;95750.63;;;5.11;75.90
19783;BME280;10051;40.294;-3.754;2023-02-13T08:56:54;95592.09;;;4.08;75.49
19783;BME280;10051;40.294;-3.754;2023-02-13T08:59:20;95749.22;;;5.15;75.46
19783;BME280;10051;40.294;-3.754;2023-02-13T09:01:45;95693.50;;;4.96;75.34
19783;BME280;10051;40.294;-3.754;2023-02-13T09:04:11;95693.69;;;5.08;75.20
19783;BME280;10051;40.294;-3.754;2023-02-13T09:06:40;95692.09;;;5.06;74.28
19783;BME280;10051;40.294;-3.754;2023-02-13T09:09:06;95669.00;;;5.10;73.57
19783;BME280;10051;40.294;-3.754;2023-02-13T09:11:32;95724.34;;;5.64;72.53
19783;BME280;10051;40.294;-3.754;2023-02-13T09:13:58;95770.38;;;6.04;72.25
19783;BME280;10051;40.294;-3.754;2023-02-13T09:16:23;95723.69;;;5.76;72.65
19783;BME280;10051;40.294;-3.754;2023-02-13T09:18:50;95723.03;;;5.87;72.29
19783;BME280;10051;40.294;-3.754;2023-02-13T09:21:17;95769.59;;;6.36;71.73
19783;BME280;10051;40.294;-3.754;2023-02-13T09:23:43;95729.97;;;6.07;71.47
19783;BME280;10051;40.294;-3.754;2023-02-13T09:26:13;95764.50;;;6.41;71.38
19783;BME280;10051;40.294;-3.754;2023-02-13T09:28:40;95754.91;;;6.35;70.99
19783;BME280;10051;40.294;-3.754;2023-02-13T09:31:14;95754.84;;;6.42;72.00
19783;BME280;10051;40.294;-3.754;2023-02-13T09:33:45;95757.97;;;6.57;71.75
19783;BME280;10051;40.294;-3.754;2023-02-13T09:36:13;95731.50;;;6.72;69.46
19783;BME280;10051;40.294;-3.754;2023-02-13T09:38:41;95720.41;;;6.51;70.93
19783;BME280;10051;40.294;-3.754;2023-02-13T09:41:20;95737.75;;;6.71;70.04
19783;BME280;10051;40.294;-3.754;2023-02-13T09:46:36;95756.75;;;7.04;70.00
19783;BME280;10051;40.294;-3.754;2023-02-13T09:49:10;95735.75;;;7.10;68.70
19783;BME280;10051;40.294;-3.754;2023-02-13T09:51:37;95732.13;;;7.11;68.49
19783;BME280;10051;40.294;-3.754;2023-02-13T09:54:07;95711.25;;;6.86;68.71
19783;BME280;10051;40.294;-3.754;2023-02-13T10:05:56;95745.91;;;7.37;68.96
19783;BME280;10051;40.294;-3.754;2023-02-13T10:08:26;95750.66;;;7.47;68.20
19783;BME280;10051;40.294;-3.754;2023-02-13T10:16:35;95741.31;;;7.70;67.58
19783;BME280;10051;40.294;-3.754;2023-02-13T10:21:52;95746.44;;;8.07;65.90
19783;BME280;10051;40.294;-3.754;2023-02-13T10:24:29;95736.72;;;8.26;64.77
19783;BME280;10051;40.294;-3.754;2023-02-13T10:26:57;95681.63;;;7.91;64.86
19783;BME280;10051;40.294;-3.754;2023-02-13T10:29:35;95735.97;;;8.50;64.30
19783;BME280;10051;40.294;-3.754;2023-02-13T10:35:01;95671.63;;;8.11;64.01
19783;BME280;10051;40.294;-3.754;2023-02-13T10:37:28;95744.09;;;8.72;64.53
19783;BME280;10051;40.294;-3.754;2023-02-13T10:39:54;95690.81;;;8.47;64.00
19783;BME280;10051;40.294;-3.754;2023-02-13T10:45:07;95746.59;;;9.02;63.27
19783;BME280;10051;40.294;-3.754;2023-02-13T10:50:29;95675.81;;;8.78;61.66
19783;BME280;10051;40.294;-3.754;2023-02-13T10:53:07;95735.75;;;9.22;61.39
19783;BME280;10051;40.294;-3.754;2023-02-13T10:58:21;95737.00;;;9.32;62.10
19783;BME280;10051;40.294;-3.754;2023-02-13T11:01:30;95730.53;;;9.51;60.18
19783;BME280;10051;40.294;-3.754;2023-02-13T11:04:07;95725.28;;;9.51;60.18
19783;BME280;10051;40.294;-3.754;2023-02-13T11:06:35;95677.59;;;9.43;59.42
19783;BME280;10051;40.294;-3.754;2023-02-13T11:09:04;95633.63;;;9.09;58.65
19783;BME280;10051;40.294;-3.754;2023-02-13T11:11:37;95665.75;;;9.40;58.97
19783;BME280;10051;40.294;-3.754;2023-02-13T11:14:10;95715.88;;;9.96;57.48
19783;BME280;10051;40.294;-3.754;2023-02-13T11:16:57;95704.50;;;9.91;58.03
19783;BME280;10051;40.294;-3.754;2023-02-13T11:19:33;95717.56;;;10.03;56.38
19783;BME280;10051;40.294;-3.754;2023-02-13T11:22:08;95718.19;;;9.93;57.34
19783;BME280;10051;40.294;-3.754;2023-02-13T11:24:35;95720.50;;;10.06;57.04
19783;BME280;10051;40.294;-3.754;2023-02-13T11:27:04;95630.38;;;9.31;56.82
19783;BME280;10051;40.294;-3.754;2023-02-13T11:29:35;95717.94;;;9.94;56.69
19783;BME280;10051;40.294;-3.754;2023-02-13T11:32:06;95712.97;;;10.10;56.68
19783;BME280;10051;40.294;-3.754;2023-02-13T11:34:36;95709.03;;;9.95;55.86
19783;BME280;10051;40.294;-3.754;2023-02-13T11:39:41;95694.53;;;9.93;55.38
19783;BME280;10051;40.294;-3.754;2023-02-13T11:42:29;95712.38;;;9.91;56.81
19783;BME280;10051;40.294;-3.754;2023-02-13T11:45:21;95710.56;;;10.08;57.42
19783;BME280;10051;40.294;-3.754;2023-02-13T11:47:48;95639.88;;;9.95;56.33
19783;BME280;10051;40.294;-3.754;2023-02-13T11:50:33;95677.50;;;10.30;55.19
19783;BME280;10051;40.294;-3.754;2023-02-13T11:53:15;95688.41;;;10.38;55.46
19783;BME280;10051;40.294;-3.754;2023-02-13T11:55:44;95700.97;;;10.65;54.85
19783;BME280;10051;40.294;-3.754;2023-02-13T12:00:40;95648.28;;;10.09;55.17
19783;BME280;10051;40.294;-3.754;2023-02-13T12:08:37;95685.19;;;10.65;54.80
19783;BME280;10051;40.294;-3.754;2023-02-13T12:13:40;95639.91;;;10.63;55.57
19783;BME280;10051;40.294;-3.754;2023-02-13T12:18:56;95675.81;;;11.14;54.03
19783;BME280;10051;40.294;-3.754;2023-02-13T12:26:34;95673.28;;;10.63;54.71
19783;BME280;10051;40.294;-3.754;2023-02-13T12:32:14;95667.44;;;10.55;55.26
19783;BME280;10051;40.294;-3.754;2023-02-13T12:45:52;95646.84;;;10.92;55.01
19783;BME280;10051;40.294;-3.754;2023-02-13T12:51:26;95641.19;;;11.22;53.94
19783;BME280;10051;40.294;-3.754;2023-02-13T12:54:06;95642.19;;;11.43;53.39
19783;BME280;10051;40.294;-3.754;2023-02-13T12:56:58;95589.59;;;11.26;53.12
19783;BME280;10051;40.294;-3.754;2023-02-13T13:10:51;95637.03;;;11.31;52.05
19783;BME280;10051;40.294;-3.754;2023-02-13T13:21:45;95628.94;;;11.11;52.71
19783;BME280;10051;40.294;-3.754;2023-02-13T13:27:13;95580.44;;;11.07;51.94
19783;BME280;10051;40.294;-3.754;2023-02-13T13:29:44;95541.94;;;11.00;51.34
19783;BME280;10051;40.294;-3.754;2023-02-13T13:32:15;95608.34;;;11.57;51.65
19783;BME280;10051;40.294;-3.754;2023-02-13T13:34:42;95572.41;;;11.46;50.01
19783;BME280;10051;40.294;-3.754;2023-02-13T13:37:11;95606.38;;;11.70;49.66
19783;BME280;10051;40.294;-3.754;2023-02-13T13:42:37;95596.34;;;11.72;49.32
19783;BME280;10051;40.294;-3.754;2023-02-13T13:50:48;95573.03;;;11.86;49.09
19783;BME280;10051;40.294;-3.754;2023-02-13T13:53:16;95551.44;;;11.56;48.90
19783;BME280;10051;40.294;-3.754;2023-02-13T13:58:42;95569.75;;;12.01;48.82
19783;BME280;10051;40.294;-3.754;2023-02-13T14:01:27;95578.28;;;12.18;48.78
19783;BME280;10051;40.294;-3.754;2023-02-13T14:03:57;95552.50;;;11.93;49.20
19783;BME280;10051;40.294;-3.754;2023-02-13T14:06:27;95545.94;;;11.96;49.14
19783;BME280;10051;40.294;-3.754;2023-02-13T14:08:58;95538.13;;;11.73;49.05
19783;BME280;10051;40.294;-3.754;2023-02-13T14:11:34;95554.31;;;11.87;49.03
19783;BME280;10051;40.294;-3.754;2023-02-13T14:14:00;95543.31;;;11.96;49.35
19783;BME280;10051;40.294;-3.754;2023-02-13T14:16:41;95525.63;;;11.91;49.19
19783;BME280;10051;40.294;-3.754;2023-02-13T14:19:30;95535.25;;;12.08;49.61
19783;BME280;10051;40.294;-3.754;2023-02-13T14:24:58;95525.00;;;12.11;49.09
19783;BME280;10051;40.294;-3.754;2023-02-13T14:27:33;95535.00;;;12.14;49.02
19783;BME280;10051;40.294;-3.754;2023-02-13T14:30:03;95531.31;;;12.10;49.02
19783;BME280;10051;40.294;-3.754;2023-02-13T14:32:33;95535.59;;;12.22;48.95
19783;BME280;10051;40.294;-3.754;2023-02-13T14:35:16;95483.22;;;11.98;48.37
19783;BME280;10051;40.294;-3.754;2023-02-13T14:37:49;95526.69;;;12.33;48.89
19783;BME280;10051;40.294;-3.754;2023-02-13T14:45:23;95466.69;;;12.08;48.20
19783;BME280;10051;40.294;-3.754;2023-02-13T14:47:54;95509.78;;;12.29;48.23
19783;BME280;10051;40.294;-3.754;2023-02-13T14:50:28;95508.25;;;12.38;47.83
19783;BME280;10051;40.294;-3.754;2023-02-13T14:52:56;95473.28;;;12.05;48.16
19783;BME280;10051;40.294;-3.754;2023-02-13T14:55:32;95497.94;;;12.31;48.34
19783;BME280;10051;40.294;-3.754;2023-02-13T14:58:11;95478.06;;;12.13;49.01
19783;BME280;10051;40.294;-3.754;2023-02-13T15:00:52;95447.09;;;11.98;48.39
19783;BME280;10051;40.294;-3.754;2023-02-13T15:03:30;95457.72;;;12.09;48.89
19783;BME280;10051;40.294;-3.754;2023-02-13T15:06:05;95482.91;;;12.32;48.99
19783;BME280;10051;40.294;-3.754;2023-02-13T15:08:40;95476.50;;;12.17;48.70
19783;BME280;10051;40.294;-3.754;2023-02-13T15:11:07;95416.97;;;11.79;48.92
19783;BME280;10051;40.294;-3.754;2023-02-13T15:13:52;95475.19;;;12.20;49.50
19783;BME280;10051;40.294;-3.754;2023-02-13T15:16:18;95466.19;;;12.11;49.38
19783;BME280;10051;40.294;-3.754;2023-02-13T15:18:45;95482.59;;;12.23;49.22
19783;BME280;10051;40.294;-3.754;2023-02-13T15:21:18;95487.09;;;12.28;49.18
19783;BME280;10051;40.294;-3.754;2023-02-13T15:23:52;95477.06;;;12.25;49.04
19783;BME280;10051;40.294;-3.754;2023-02-13T15:26:22;95445.91;;;12.11;49.30
19783;BME280;10051;40.294;-3.754;2023-02-13T15:29:20;95477.34;;;12.28;49.15
19783;BME280;10051;40.294;-3.754;2023-02-13T15:31:45;95471.28;;;12.28;49.45
19783;BME280;10051;40.294;-3.754;2023-02-13T15:34:29;95463.91;;;12.30;48.80
19783;BME280;10051;40.294;-3.754;2023-02-13T15:36:56;95414.69;;;11.98;48.81